Time;durP1;ratioP1;P1;durP2;ratioP2;P2;SDS_P1;SDS_P2;PMS_P1;PMS_P2;Temp;Humidity;BMP_temperature;BMP_pressure;BME280_temperature;BME280_humidity;BME280_pressure;Samples;Min_cycle;Max_cycle;Signal;HPM_P1;HPM_P2
2021/12/13 00:05:18;;;;;;;2.25;0.40;;;;;;;12.14;72.11;100912.28;5094944;28;20096;-74
2021/12/13 00:07:55;;;;;;;3.45;0.30;;;;;;;12.11;72.28;100919.13;5090354;28;20020;-74
2021/12/13 00:10:25;;;;;;;1.55;0.77;;;;;;;11.92;73.21;100910.47;5090664;28;20024;-74
2021/12/13 00:13:02;;;;;;;3.50;0.52;;;;;;;11.99;72.96;100908.34;5097283;28;20047;-74
2021/12/13 00:15:35;;;;;;;3.85;0.68;;;;;;;11.91;73.28;100922.50;5093623;28;20039;-74
2021/12/13 00:18:09;;;;;;;3.78;0.60;;;;;;;11.89;73.65;100911.00;5095077;28;20028;-73
2021/12/13 00:20:40;;;;;;;2.40;0.40;;;;;;;11.77;74.35;100913.06;5085687;28;20058;-74
2021/12/13 00:23:14;;;;;;;7.30;0.60;;;;;;;11.82;73.89;100919.44;5089717;28;20016;-75
2021/12/13 00:36:11;;;;;;;1.70;0.35;;;;;;;11.56;75.30;100932.09;5093120;27;20116;-76
2021/12/13 00:42:54;;;;;;;;;;;;;;;;;;;;;
2021/12/13 00:49:32;;;;;;;5.45;0.38;;;;;;;11.41;75.00;100926.50;5002033;28;20718;-76
2021/12/13 00:51:59;;;;;;;0.15;0.10;;;;;;;11.35;74.92;100926.41;5004142;28;20088;-76
2021/12/13 00:54:35;;;;;;;1.10;0.40;;;;;;;11.24;75.79;100910.16;5061615;28;20035;-77
2021/12/13 00:57:18;;;;;;;1.83;0.20;;;;;;;11.28;74.96;100928.53;5089699;28;20048;-75
2021/12/13 01:00:03;;;;;;;0.55;0.20;;;;;;;11.23;75.36;100927.66;5095875;28;20078;-76
2021/12/13 01:03:08;;;;;;;1.00;0.10;;;;;;;11.09;75.46;100902.63;5112877;28;20047;-76
2021/12/13 01:06:09;;;;;;;0.73;0.30;;;;;;;10.98;75.87;100918.94;5089275;28;20023;-74
2021/12/13 01:08:56;;;;;;;5.78;0.47;;;;;;;10.92;75.89;100919.13;5087689;28;20031;-73
2021/12/13 01:11:39;;;;;;;1.83;0.55;;;;;;;10.73;76.17;100903.06;5099707;28;20047;-80
2021/12/13 01:14:55;;;;;;;;;;;;;;;;;;;;;
2021/12/13 01:21:37;;;;;;;0.65;0.00;;;;;;;10.80;77.60;100908.31;5122906;28;20023;-79
2021/12/13 01:23:53;;;;;;;3.05;0.20;;;;;;;10.78;77.64;100896.81;5122493;28;20027;-81
2021/12/13 01:26:34;;;;;;;1.13;0.30;;;;;;;10.96;77.60;100909.31;5105305;28;20042;-79
2021/12/13 01:29:17;;;;;;;0.60;0.30;;;;;;;11.15;77.53;100926.22;5102341;28;20035;-79
2021/12/13 01:32:06;;;;;;;2.20;0.40;;;;;;;11.19;77.56;100935.56;5136803;27;20026;-79
2021/12/13 01:34:37;;;;;;;1.25;0.50;;;;;;;11.23;77.29;100930.41;5125063;27;20031;-79
2021/12/13 01:37:15;;;;;;;1.15;0.30;;;;;;;11.19;77.24;100913.69;5118468;27;20031;-79
2021/12/13 01:39:52;;;;;;;3.30;0.47;;;;;;;11.20;77.55;100915.34;5120785;27;20026;-82
2021/12/13 01:42:33;;;;;;;;;;;;;;;;;;;;;
2021/12/13 01:45:20;;;;;;;1.33;0.55;;;;;;;11.21;77.51;100906.03;5128067;27;20162;-80
2021/12/13 01:47:46;;;;;;;3.38;0.55;;;;;;;11.37;77.44;100925.34;5138784;27;20030;-81
2021/12/13 01:50:47;;;;;;;1.58;0.40;;;;;;;11.47;77.26;100925.44;5109910;27;20023;-81
2021/12/13 01:53:33;;;;;;;0.70;0.40;;;;;;;11.32;77.18;100894.09;5120118;27;20365;-81
2021/12/13 01:56:00;;;;;;;;;;;;;;;11.58;76.95;100929.94;5119853;27;20381;-80
2021/12/13 02:01:34;;;;;;;3.33;0.55;;;;;;;11.63;77.52;100935.44;5124208;27;20025;-81
2021/12/13 02:04:15;;;;;;;9.55;1.08;;;;;;;11.60;77.20;100929.66;5076827;28;20125;-81
2021/12/13 02:06:58;;;;;;;3.78;0.52;;;;;;;11.61;77.42;100929.41;5058132;28;20020;-81
2021/12/13 02:09:34;;;;;;;4.25;0.80;;;;;;;11.64;77.45;100931.63;5101256;27;20198;-79
2021/12/13 02:12:14;;;;;;;1.02;0.68;;;;;;;11.73;77.35;100922.94;5116458;27;20030;-80
2021/12/13 02:16:55;;;;;;;1.90;0.65;;;;;;;11.82;77.51;100926.84;5133576;27;20087;-80
2021/12/13 02:17:35;;;;;;;10.23;1.48;;;;;;;11.71;77.29;100920.47;5139498;27;20469;-80
2021/12/13 02:20:11;;;;;;;2.33;0.38;;;;;;;11.70;77.29;100919.63;5126612;27;20022;-81
2021/12/13 02:23:01;;;;;;;8.48;1.10;;;;;;;11.79;77.46;100913.66;5137868;27;20034;-81
2021/12/13 02:25:59;;;;;;;8.82;0.60;;;;;;;11.93;76.95;100934.09;5119451;27;20129;-80
2021/12/13 02:28:44;;;;;;;2.25;0.73;;;;;;;11.88;77.12;100920.31;5121184;27;20035;-77
2021/12/13 02:31:44;;;;;;;4.38;0.32;;;;;;;12.03;76.61;100934.16;5137465;27;20027;-81
2021/12/13 02:34:13;;;;;;;4.68;1.00;;;;;;;11.92;76.95;100913.22;5111981;28;20393;-80
2021/12/13 02:36:57;;;;;;;2.67;0.95;;;;;;;11.89;77.17;100911.00;5123103;28;20081;-81
2021/12/13 02:39:31;;;;;;;4.53;0.30;;;;;;;11.92;76.47;100915.94;5121489;28;20079;-81
2021/12/13 02:42:12;;;;;;;15.27;1.20;;;;;;;11.98;76.76;100919.59;5133213;28;20015;-80
2021/12/13 02:44:45;;;;;;;3.50;0.50;;;;;;;11.85;76.75;100898.91;5123077;28;20034;-79
2021/12/13 02:47:35;;;;;;;1.48;0.55;;;;;;;11.97;77.23;100912.44;5112995;28;20440;-78
2021/12/13 02:50:18;;;;;;;2.72;0.75;;;;;;;11.97;77.23;100920.66;5126870;28;20798;-78
2021/12/13 02:52:45;;;;;;;2.90;0.60;;;;;;;11.85;77.00;100904.38;5132764;28;20031;-80
2021/12/13 02:55:17;;;;;;;1.38;0.50;;;;;;;11.84;76.92;100900.84;5121995;28;20044;-79
2021/12/13 02:57:47;;;;;;;3.90;0.73;;;;;;;11.91;76.89;100900.59;5130918;27;20035;-80
2021/12/13 03:00:52;;;;;;;5.40;0.70;;;;;;;11.98;76.80;100923.13;5126820;27;20024;-80
2021/12/13 03:03:30;;;;;;;2.78;0.68;;;;;;;11.97;76.97;100913.28;5128035;28;20019;-76
2021/12/13 03:09:22;;;;;;;0.77;0.40;;;;;;;11.86;76.73;100903.31;5137238;28;20049;-78
2021/12/13 03:11:51;;;;;;;5.93;0.80;;;;;;;11.91;77.08;100911.53;5128163;28;20388;-78
2021/12/13 03:14:22;;;;;;;0.82;0.20;;;;;;;11.95;77.31;100906.41;5128880;27;20020;-78
2021/12/13 03:16:58;;;;;;;6.60;0.75;;;;;;;11.94;76.39;100908.31;5122066;28;20030;-77
2021/12/13 03:19:47;;;;;;;0.95;0.50;;;;;;;11.96;76.75;100911.63;5115576;27;20037;-77
2021/12/13 03:22:24;;;;;;;1.83;0.52;;;;;;;11.86;76.41;100895.09;5122391;27;20030;-77
2021/12/13 03:28:48;;;;;;;;;;;;;;;;;;;;;
2021/12/13 03:32:13;;;;;;;2.28;0.68;;;;;;;11.81;76.43;100914.22;5057249;28;20568;-77
2021/12/13 03:35:10;;;;;;;1.38;0.40;;;;;;;11.78;77.51;100920.22;5048770;28;20498;-78
2021/12/13 03:44:38;;;;;;;4.53;0.40;;;;;;;11.70;77.82;100897.69;5033732;28;20026;-78
2021/12/13 03:47:24;;;;;;;2.80;0.77;;;;;;;11.74;77.35;100910.88;5022722;28;20379;-79
2021/12/13 03:49:58;;;;;;;1.75;0.73;;;;;;;11.82;77.88;100915.88;5094769;28;20031;-78
2021/12/13 03:52:28;;;;;;;3.47;0.35;;;;;;;11.83;77.42;100923.84;5097630;28;20115;-79
2021/12/13 03:54:57;;;;;;;3.97;0.70;;;;;;;11.84;77.73;100930.13;5096139;28;20016;-78
2021/12/13 04:00:55;;;;;;;4.10;0.55;;;;;;;11.91;77.77;100914.28;5370198;22;20084;-75
2021/12/13 04:03:24;;;;;;;5.47;0.80;;;;;;;11.76;76.95;100911.44;5079639;28;20070;-78
2021/12/13 04:06:00;;;;;;;1.10;0.40;;;;;;;11.82;77.36;100921.34;5081053;28;20051;-77
2021/12/13 04:08:36;;;;;;;2.38;0.65;;;;;;;11.83;76.87;100923.84;5082962;28;20028;-77
2021/12/13 04:11:11;;;;;;;9.13;1.00;;;;;;;11.78;76.72;100917.47;5071980;28;20025;-77
2021/12/13 04:13:50;;;;;;;6.20;0.30;;;;;;;11.84;77.23;100924.66;5080471;28;20038;-77
2021/12/13 04:16:34;;;;;;;1.45;0.30;;;;;;;11.84;77.35;100910.94;5091228;28;20084;-76
2021/12/13 04:19:13;;;;;;;5.68;0.88;;;;;;;11.82;76.99;100915.88;5079298;28;20055;-76
2021/12/13 04:22:01;;;;;;;6.18;0.40;;;;;;;11.80;76.73;100901.63;5092489;28;20074;-77
2021/12/13 04:25:05;;;;;;;2.60;1.23;;;;;;;11.88;76.64;100914.81;5078741;28;20028;-80
2021/12/13 04:27:47;;;;;;;2.20;0.40;;;;;;;11.72;77.05;100904.84;5071849;28;20040;-79
2021/12/13 04:30:35;;;;;;;7.65;0.20;;;;;;;11.60;76.80;100894.88;5080361;28;20094;-80
2021/12/13 04:33:07;;;;;;;2.83;0.68;;;;;;;11.63;77.54;100910.78;5083549;28;20059;-79
2021/12/13 04:35:34;;;;;;;1.63;0.45;;;;;;;11.47;77.22;100887.91;5081354;28;20029;-79
2021/12/13 04:38:26;;;;;;;;;;;;;;;;;;;;;
2021/12/13 04:41:04;;;;;;;3.28;0.73;;;;;;;11.50;77.47;100913.97;5082370;28;20076;-78
2021/12/13 04:43:35;;;;;;;3.55;0.45;;;;;;;11.61;77.31;100918.44;5078026;28;20044;-78
2021/12/13 04:46:17;;;;;;;4.47;0.50;;;;;;;11.53;77.80;100925.25;5081103;28;20023;-77
2021/12/13 04:48:49;;;;;;;2.88;0.47;;;;;;;11.49;78.14;100915.03;5089122;28;20016;-76
2021/12/13 04:51:16;;;;;;;6.10;0.77;;;;;;;11.56;77.81;100929.34;5085749;28;20103;-75
2021/12/13 04:53:50;;;;;;;2.85;0.63;;;;;;;11.51;78.42;100910.97;5088486;28;20048;-77
2021/12/13 04:56:23;;;;;;;1.33;0.38;;;;;;;11.50;78.27;100913.97;5092741;28;20017;-74
2021/12/13 05:01:58;;;;;;;;;;;;;;;;;;;;;
2021/12/13 05:07:49;;;;;;;3.03;0.35;;;;;;;11.55;78.62;100935.09;5070529;28;20046;-76
2021/12/13 05:20:46;;;;;;;6.38;1.00;;;;;;;11.31;79.15;100900.63;5077288;28;20032;-77
2021/12/13 05:23:24;;;;;;;5.53;0.75;;;;;;;11.31;79.19;100906.13;5065628;28;20021;-78
2021/12/13 05:39:45;;;;;;;1.35;0.68;;;;;;;11.50;78.51;100892.06;5086756;28;20028;-81
2021/12/13 05:42:46;;;;;;;;;;;;;;;;;;;;;
2021/12/13 05:55:18;;;;;;;;;;;;;;;;;;;;;
2021/12/13 05:59:05;;;;;;;;;;;;;;;;;;;;;
2021/12/13 06:08:20;;;;;;;2.97;0.40;;;;;;;11.34;79.47;100922.03;4988737;28;20034;-85
2021/12/13 06:11:02;;;;;;;2.70;0.43;;;;;;;11.53;80.04;100946.31;4979765;28;20058;-84
2021/12/13 06:13:51;;;;;;;4.88;0.30;;;;;;;11.59;79.29;100948.00;4982101;28;20053;-82
2021/12/13 06:16:23;;;;;;;1.00;0.38;;;;;;;11.60;79.77;100938.69;5061955;28;20100;-84
2021/12/13 06:19:06;;;;;;;3.22;0.50;;;;;;;11.61;79.03;100943.09;5087062;28;20064;-83
2021/12/13 06:22:03;;;;;;;5.25;0.63;;;;;;;11.54;79.31;100937.00;5080924;28;20021;-82
2021/12/13 06:24:33;;;;;;;1.00;0.35;;;;;;;11.58;79.10;100938.16;5086268;28;20028;-78
2021/12/13 06:27:09;;;;;;;2.17;0.30;;;;;;;11.64;78.92;100926.16;5075427;28;20032;-78
2021/12/13 06:29:54;;;;;;;3.92;0.60;;;;;;;11.67;79.42;100947.53;5080663;28;20078;-82
2021/12/13 06:32:41;;;;;;;4.78;0.38;;;;;;;11.52;79.95;100944.66;5069910;28;20062;-82
2021/12/13 06:35:40;;;;;;;2.05;0.40;;;;;;;11.52;80.09;100977.50;5077675;28;20124;-82
2021/12/13 06:38:43;;;;;;;;;;;;;;;;;;;;;
2021/12/13 06:41:17;;;;;;;1.73;0.32;;;;;;;11.27;81.83;100959.75;5054705;28;20537;-82
2021/12/13 06:44:28;;;;;;;2.42;0.45;;;;;;;11.23;81.84;100974.19;5079989;28;20051;-83
2021/12/13 06:47:21;;;;;;;1.17;0.25;;;;;;;11.21;82.33;100982.66;5082914;28;20032;-83
2021/12/13 06:50:03;;;;;;;0.73;0.25;;;;;;;11.05;82.85;100969.91;5077071;28;20032;-81
2021/12/13 06:52:37;;;;;;;0.75;0.20;;;;;;;11.07;82.90;100976.78;5072102;28;20051;-80
2021/12/13 06:55:12;;;;;;;1.05;0.17;;;;;;;11.14;83.13;100984.78;5075445;28;20412;-79
2021/12/13 06:58:00;;;;;;;0.20;0.10;;;;;;;11.10;83.10;100972.72;5076346;28;20024;-78
2021/12/13 07:00:32;;;;;;;0.30;0.10;;;;;;;10.98;83.42;100973.66;5073425;28;20479;-76
2021/12/13 07:03:09;;;;;;;0.08;0.08;;;;;;;11.08;83.06;100988.53;5072917;28;20056;-75
2021/12/13 07:05:41;;;;;;;3.72;0.30;;;;;;;11.04;83.62;100987.41;5076649;28;20467;-77
2021/12/13 07:08:10;;;;;;;1.77;0.10;;;;;;;11.00;83.68;100985.16;5092628;28;20084;-76
2021/12/13 07:10:43;;;;;;;3.38;0.20;;;;;;;10.94;84.24;100978.00;5088708;28;20025;-77
2021/12/13 07:13:34;;;;;;;0.88;0.20;;;;;;;10.92;83.65;100991.09;5093574;28;20056;-79
2021/12/13 07:16:11;;;;;;;3.72;0.40;;;;;;;10.90;84.05;100987.78;5085289;28;20055;-78
2021/12/13 07:22:08;;;;;;;0.22;0.10;;;;;;;10.52;85.84;100988.66;5041843;28;20024;-76
2021/12/13 07:24:42;;;;;;;3.13;0.43;;;;;;;10.63;86.14;100991.28;5078680;28;20020;-76
2021/12/13 07:27:31;;;;;;;1.25;0.22;;;;;;;10.57;85.37;100989.56;5093547;28;20124;-77
2021/12/13 07:30:30;;;;;;;2.72;0.90;;;;;;;10.65;85.18;101010.97;5077146;28;20051;-76
2021/12/13 07:33:42;;;;;;;;;;;;;;;;;;;;;
2021/12/13 07:36:26;;;;;;;3.20;0.55;;;;;;;10.72;85.68;101018.16;5084264;28;20112;-75
2021/12/13 07:39:11;;;;;;;3.10;0.20;;;;;;;10.60;85.47;101019.13;5079382;28;20048;-79
2021/12/13 07:42:25;;;;;;;1.52;0.30;;;;;;;10.77;85.15;101051.09;5077108;28;20024;-80
2021/12/13 07:45:07;;;;;;;;;;;;;;;;;;;;;
2021/12/13 07:47:42;;;;;;;1.95;0.30;;;;;;;10.85;85.20;101053.41;5067266;28;20103;-81
2021/12/13 07:50:09;;;;;;;2.15;0.40;;;;;;;10.72;85.12;101034.59;5078214;28;20047;-81
2021/12/13 07:52:52;;;;;;;7.80;0.50;;;;;;;10.70;85.35;101021.16;5084971;28;20448;-80
2021/12/13 07:55:49;;;;;;;1.20;0.63;;;;;;;10.85;85.59;101050.66;5095270;28;20028;-80
2021/12/13 07:58:40;;;;;;;1.80;0.57;;;;;;;10.96;85.49;101055.16;5076532;28;20032;-81
2021/12/13 08:01:27;;;;;;;4.60;0.50;;;;;;;10.91;84.84;101060.59;5080548;28;20064;-81
2021/12/13 08:04:05;;;;;;;4.15;0.98;;;;;;;10.89;84.89;101049.06;5082524;28;20047;-79
2021/12/13 08:06:44;;;;;;;0.70;0.20;;;;;;;11.00;84.70;101064.53;5074881;28;20097;-81
2021/12/13 08:09:19;;;;;;;0.75;0.35;;;;;;;10.94;85.27;101065.56;5080133;28;20047;-78
2021/12/13 08:11:54;;;;;;;1.35;0.60;;;;;;;10.87;85.09;101048.50;5072240;28;20031;-77
2021/12/13 08:14:36;;;;;;;6.28;0.63;;;;;;;11.01;84.92;101070.84;5078826;28;20029;-77
2021/12/13 08:17:49;;;;;;;1.38;0.40;;;;;;;10.99;84.68;101070.25;5076681;28;20036;-79
2021/12/13 08:20:45;;;;;;;0.93;0.38;;;;;;;11.07;84.79;101075.31;5077365;28;20032;-76
2021/12/13 08:23:36;;;;;;;0.70;0.28;;;;;;;11.06;84.74;101072.81;5071354;28;20028;-77
2021/12/13 08:26:11;;;;;;;1.10;0.30;;;;;;;10.99;85.08;101057.44;5093573;28;20084;-78
2021/12/13 08:29:34;;;;;;;;;;;;;;;;;;;;;
2021/12/13 08:31:56;;;;;;;0.85;0.40;;;;;;;11.00;84.88;101063.72;5073574;28;20033;-78
2021/12/13 08:35:13;;;;;;;2.10;0.30;;;;;;;11.00;84.10;101064.53;5071887;28;20431;-76
2021/12/13 08:37:45;;;;;;;1.00;0.30;;;;;;;11.08;84.26;101082.44;5066365;28;20047;-77
2021/12/13 08:40:35;;;;;;;0.98;0.30;;;;;;;11.07;84.84;101091.72;5083259;28;20056;-78
2021/12/13 08:43:12;;;;;;;;;;;;;;;;;;;;;
2021/12/13 08:45:48;;;;;;;10.10;0.50;;;;;;;11.00;84.20;101099.28;5083958;28;20100;-76
2021/12/13 08:48:20;;;;;;;1.08;0.40;;;;;;;11.02;84.50;101104.50;5076420;28;20017;-78
2021/12/13 08:51:55;;;;;;;;;;;;;;;;;;;;;
2021/12/13 08:58:48;;;;;;;1.33;0.30;;;;;;;10.94;84.35;101103.88;5042790;28;20036;-77
2021/12/13 09:02:03;;;;;;;0.10;0.10;;;;;;;11.00;85.14;101112.97;4967602;28;20038;-86
2021/12/13 09:07:36;;;;;;;1.13;0.20;;;;;;;10.89;84.93;101109.25;4942571;29;20449;-80
2021/12/13 09:10:06;;;;;;;0.20;0.10;;;;;;;10.93;84.61;101118.63;4938240;29;20038;-79
2021/12/13 09:15:50;;;;;;;0.40;0.30;;;;;;;10.76;84.86;101091.31;4934419;29;20063;-80
2021/12/13 09:18:51;;;;;;;;;;;;;;;;;;;;;
2021/12/13 09:21:26;;;;;;;3.22;0.52;;;;;;;10.92;85.15;101089.63;5065999;28;20467;-80
2021/12/13 09:24:54;;;;;;;;;;;;;;;;;;;;;
2021/12/13 09:38:16;;;;;;;1.30;0.55;;;;;;;11.15;84.72;101098.66;5003149;28;20060;-81
2021/12/13 09:40:48;;;;;;;1.75;0.85;;;;;;;11.33;84.15;101114.78;4982747;28;20065;-82
2021/12/13 09:43:26;;;;;;;1.83;0.13;;;;;;;11.50;84.89;101119.38;5026550;28;20045;-79
2021/12/13 09:46:03;;;;;;;8.65;0.60;;;;;;;11.56;84.60;101142.19;5063831;28;20045;-81
2021/12/13 09:48:56;;;;;;;;;;;;;;;;;;;;;
2021/12/13 09:51:33;;;;;;;2.50;0.80;;;;;;;11.45;84.03;101103.72;5047569;28;20088;-78
2021/12/13 09:54:12;;;;;;;3.42;0.60;;;;;;;11.54;84.61;101120.53;5059242;28;20505;-78
2021/12/13 09:56:52;;;;;;;;;;;;;;;;;;;;;
2021/12/13 09:59:22;;;;;;;1.67;0.60;;;;;;;11.81;84.29;101134.28;5055268;28;20533;-78
2021/12/13 10:01:49;;;;;;;4.05;1.00;;;;;;;11.88;83.68;101147.75;5054384;28;20029;-77
2021/12/13 10:04:32;;;;;;;1.10;0.90;;;;;;;11.97;83.91;101142.69;5087842;28;20059;-79
2021/12/13 10:07:09;;;;;;;4.78;0.98;;;;;;;12.10;83.47;101142.25;5071363;28;20130;-79
2021/12/13 10:09:47;;;;;;;6.93;0.80;;;;;;;12.23;83.32;101138.28;5074924;28;20085;-79
2021/12/13 10:12:23;;;;;;;5.38;1.17;;;;;;;12.33;83.42;101130.16;5073866;28;20035;-79
2021/12/13 10:14:59;;;;;;;2.88;1.10;;;;;;;12.33;82.42;101124.66;5074867;28;20089;-80
2021/12/13 10:17:45;;;;;;;3.08;1.45;;;;;;;12.26;82.42;101110.34;5080492;28;20025;-78
2021/12/13 10:21:06;;;;;;;1.45;1.00;;;;;;;12.31;82.67;101110.41;5104313;28;20023;-81
2021/12/13 10:24:15;;;;;;;5.70;1.63;;;;;;;12.56;82.26;101128.16;5060659;28;20040;-80
2021/12/13 10:26:46;;;;;;;2.63;1.20;;;;;;;12.76;81.74;101154.91;5072946;28;20032;-82
2021/12/13 10:30:04;;;;;;;12.32;1.20;;;;;;;12.87;81.93;101150.34;5094317;28;20021;-82
2021/12/13 10:32:35;;;;;;;3.05;1.17;;;;;;;12.99;80.77;101159.19;5070081;28;20072;-79
2021/12/13 10:35:29;;;;;;;4.00;1.77;;;;;;;12.99;80.64;101137.22;5076587;28;20033;-79
2021/12/13 10:38:06;;;;;;;5.20;1.45;;;;;;;12.90;79.88;101123.16;5074956;28;21011;-82
2021/12/13 10:40:57;;;;;;;;;;;;;;;;;;;;;
2021/12/13 10:43:54;;;;;;;4.88;1.20;;;;;;;12.69;79.32;101113.97;5079816;28;20089;-85
2021/12/13 10:46:53;;;;;;;;;;;;;;;;;;;;;
2021/12/13 10:49:39;;;;;;;2.33;0.77;;;;;;;12.75;79.45;101150.53;5072545;28;20091;-80
2021/12/13 10:52:30;;;;;;;6.43;1.13;;;;;;;12.62;79.22;101143.56;5076091;28;20031;-76
2021/12/13 10:54:59;;;;;;;4.38;0.95;;;;;;;12.58;78.79;101145.16;5082063;28;20028;-81
2021/12/13 10:58:36;;;;;;;;;;;;;;;;;;;;;
2021/12/13 11:01:14;;;;;;;4.97;0.77;;;;;;;12.57;79.00;101129.78;5070868;28;20032;-82
2021/12/13 11:03:46;;;;;;;2.72;1.02;;;;;;;12.55;78.52;101129.25;5079141;28;20040;-80
2021/12/13 11:06:16;;;;;;;3.28;0.70;;;;;;;12.40;78.33;101097.03;5078453;28;20028;-82
2021/12/13 11:08:52;;;;;;;3.88;0.73;;;;;;;12.63;78.01;101126.03;5077259;28;20029;-80
2021/12/13 11:11:31;;;;;;;1.95;1.50;;;;;;;12.89;78.41;101120.69;5074196;28;20033;-75
2021/12/13 11:14:00;;;;;;;5.40;3.42;;;;;;;13.12;76.70;101124.13;5065863;28;20035;-75
2021/12/13 11:16:40;;;;;;;3.78;1.52;;;;;;;13.25;76.15;101123.66;5078364;28;20037;-77
2021/12/13 11:19:12;;;;;;;1.63;1.05;;;;;;;13.25;75.25;101112.66;5078337;28;20086;-76
2021/12/13 11:21:41;;;;;;;1.92;0.73;;;;;;;13.28;74.07;101126.69;5075798;28;20040;-79
2021/12/13 11:24:13;;;;;;;0.90;0.70;;;;;;;13.20;74.37;101123.63;5088358;28;20044;-76
2021/12/13 11:26:56;;;;;;;;;;;;;;;;;;;;;
2021/12/13 11:29:28;;;;;;;2.00;0.88;;;;;;;12.90;73.72;101116.88;5077324;28;20103;-80
2021/12/13 11:32:06;;;;;;;;;;;;;;;;;;;;;
2021/12/13 11:35:10;;;;;;;2.97;2.08;;;;;;;12.72;74.37;101140.91;5070965;28;20084;-80
2021/12/13 11:38:32;;;;;;;;;;;;;;;;;;;;;
2021/12/13 11:41:31;;;;;;;7.88;1.33;;;;;;;12.39;75.35;101145.56;5072757;28;20028;-82
2021/12/13 11:44:43;;;;;;;1.17;0.70;;;;;;;12.27;76.55;101147.66;5004506;28;20103;-81
2021/12/13 11:47:40;;;;;;;1.00;0.80;;;;;;;12.28;77.05;101143.81;5069096;28;20096;-82
2021/12/13 11:50:21;;;;;;;9.50;1.30;;;;;;;12.41;76.48;101148.03;5079240;28;20025;-81
2021/12/13 11:53:18;;;;;;;;;;;;;;;;;;;;;
2021/12/13 11:56:18;;;;;;;6.28;0.50;;;;;;;12.44;75.27;101152.19;5076578;28;20084;-78
2021/12/13 11:59:25;;;;;;;1.95;0.47;;;;;;;12.38;75.88;101149.41;5078897;28;20389;-78
2021/12/13 12:02:15;;;;;;;2.38;0.20;;;;;;;12.47;75.55;101155.25;5088354;28;20437;-77
2021/12/13 12:05:24;;;;;;;0.70;0.50;;;;;;;12.65;75.32;101148.53;5069843;28;20036;-79
2021/12/13 12:08:27;;;;;;;3.13;0.93;;;;;;;12.58;75.46;101147.91;5085791;28;20037;-79
2021/12/13 12:14:14;;;;;;;1.65;0.20;;;;;;;12.32;75.07;101123.00;5077721;28;20037;-77
2021/12/13 12:16:47;;;;;;;0.90;0.20;;;;;;;12.33;75.25;101127.41;5075580;28;20039;-79
2021/12/13 12:23:29;;;;;;;1.13;0.73;;;;;;;12.15;76.26;101130.50;4936813;29;20035;-81
2021/12/13 12:26:16;;;;;;;4.13;0.22;;;;;;;12.09;76.62;101126.06;4931120;28;20031;-81
2021/12/13 12:29:03;;;;;;;0.35;0.17;;;;;;;12.16;77.74;101129.44;4995505;28;20138;-83
2021/12/13 12:32:34;;;;;;;;;;;;;;;;;;;;;
2021/12/13 12:35:24;;;;;;;0.80;0.57;;;;;;;11.94;78.49;101111.13;4994102;28;21622;-80
2021/12/13 12:38:25;;;;;;;2.58;0.50;;;;;;;12.01;78.83;101132.84;5087059;28;20092;-81
2021/12/13 12:41:48;;;;;;;1.63;0.40;;;;;;;12.04;78.20;101133.16;5071774;28;20033;-74
2021/12/13 12:45:00;;;;;;;6.13;0.57;;;;;;;11.87;79.36;101094.03;5088396;28;20103;-78
2021/12/13 12:47:34;;;;;;;7.22;0.85;;;;;;;12.17;79.08;101125.63;5030045;28;20033;-77
2021/12/13 12:50:45;;;;;;;;;;;;;;;;;;;;;
2021/12/13 12:53:44;;;;;;;;;;;;;;;;;;;;;
2021/12/13 12:56:43;;;;;;;0.60;0.40;;;;;;;12.07;79.01;101090.69;4972405;28;20224;-80
2021/12/13 13:03:02;;;;;;;;;;;;;;;;;;;;;
2021/12/13 13:05:32;;;;;;;0.75;0.30;;;;;;;12.66;79.41;101109.03;4999901;28;20102;-77
2021/12/13 13:08:01;;;;;;;0.10;0.10;;;;;;;12.93;78.74;101110.84;4989661;28;20042;-77
2021/12/13 13:13:10;;;;;;;1.85;0.20;;;;;;;13.00;77.96;101094.97;5027661;28;20796;-78
2021/12/13 13:16:03;;;;;;;1.10;0.22;;;;;;;12.98;77.80;101091.66;5023645;28;20029;-79
2021/12/13 13:19:10;;;;;;;;;;;;;;;;;;;;;
2021/12/13 13:21:30;;;;;;;0.65;0.30;;;;;;;12.97;77.08;101073.53;5064210;28;20033;-78
2021/12/13 13:24:03;;;;;;;3.28;0.50;;;;;;;13.12;77.20;101080.22;5070646;28;20029;-78
2021/12/13 13:26:50;;;;;;;2.22;0.52;;;;;;;13.28;76.29;101095.66;5068732;28;20034;-78
2021/12/13 13:33:00;;;;;;;0.63;0.32;;;;;;;13.11;76.07;101095.84;5050566;28;20402;-80
2021/12/13 13:36:04;;;;;;;1.00;0.30;;;;;;;12.86;76.16;101058.09;5071288;28;20048;-80
2021/12/13 13:42:32;;;;;;;1.85;0.10;;;;;;;13.00;76.91;101062.03;4989213;28;20034;-80
2021/12/13 13:48:47;;;;;;;;;;;;;;;;;;;;;
2021/12/13 13:54:13;;;;;;;0.73;0.32;;;;;;;12.84;75.10;101057.53;5051499;28;20064;-76
2021/12/13 13:56:49;;;;;;;0.75;0.28;;;;;;;12.84;75.32;101080.31;5072434;28;20033;-75
2021/12/13 13:59:28;;;;;;;;;;;;;;;;;;;;;
2021/12/13 14:02:07;;;;;;;;;;;;;;;;;;;;;
2021/12/13 14:04:54;;;;;;;;;;;;;;;;;;;;;
2021/12/13 14:10:31;;;;;;;2.50;1.13;;;;;;;12.63;76.36;101060.16;5064478;28;20071;-77
2021/12/13 14:13:14;;;;;;;3.67;1.60;;;;;;;12.66;76.20;101065.13;5073192;28;20028;-77
2021/12/13 14:15:47;;;;;;;4.63;1.88;;;;;;;12.65;76.05;101077.19;5075997;28;20017;-78
2021/12/13 14:18:30;;;;;;;6.65;1.80;;;;;;;12.65;75.99;101077.19;5073185;28;20054;-78
2021/12/13 14:21:13;;;;;;;4.00;1.73;;;;;;;12.48;76.26;101082.81;5063072;28;20040;-78
2021/12/13 14:23:53;;;;;;;2.67;1.77;;;;;;;12.55;76.14;101096.31;5073217;28;20055;-77
2021/12/13 14:30:49;;;;;;;;;;;;;;;;;;;;;
2021/12/13 14:51:46;;;;;;;;;;;;;;;;;;;;;
2021/12/13 14:58:07;;;;;;;0.43;0.30;;;;;;;12.37;75.99;101112.09;4761310;30;20048;-77
2021/12/13 15:01:00;;;;;;;3.10;0.43;;;;;;;12.19;76.80;101102.34;4754907;29;20036;-77
2021/12/13 15:04:08;;;;;;;;;;;;;;;;;;;;;
2021/12/13 15:07:09;;;;;;;;;;;;;;;;;;;;;
2021/12/13 15:10:07;;;;;;;3.80;0.80;;;;;;;11.90;77.67;101099.00;5073377;28;20084;-78
2021/12/13 15:12:58;;;;;;;3.08;0.52;;;;;;;11.80;78.49;101077.00;5078331;28;20086;-77
2021/12/13 15:16:14;;;;;;;0.65;0.50;;;;;;;12.06;78.19;101097.25;5077410;28;20029;-77
2021/12/13 15:22:57;;;;;;;;;;;;;;;;;;;;;
2021/12/13 15:29:43;;;;;;;2.65;0.73;;;;;;;11.96;78.24;101098.00;4917454;29;20036;-78
2021/12/13 17:08:34;;;;;;;3.65;0.98;;;;;;;11.15;79.61;101147.94;4889778;29;20062;-79
2021/12/13 17:11:54;;;;;;;;;;;;;;;;;;;;;
2021/12/13 17:15:02;;;;;;;;;;;;;;;;;;;;;
2021/12/13 17:18:28;;;;;;;;;;;;;;;;;;;;;
2021/12/13 17:24:59;;;;;;;5.45;2.08;;;;;;;11.21;78.64;101152.41;4901772;28;20051;-79
2021/12/13 17:32:39;;;;;;;;;;;;;;;;;;;;;
2021/12/13 17:35:16;;;;;;;;;;;;;;;;;;;;;
2021/12/13 17:38:22;;;;;;;;;;;;;;;;;;;;;
2021/12/13 17:41:48;;;;;;;;;;;;;;;;;;;;;
2021/12/13 17:44:38;;;;;;;;;;;;;;;;;;;;;
2021/12/13 17:48:08;;;;;;;;;;;;;;;;;;;;;
2021/12/13 21:10:19;;;;;;;3.70;2.40;;;;;;;10.89;82.34;101259.75;4889251;29;20043;-74
2021/12/13 21:13:05;;;;;;;;;;;;;;;;;;;;;
2021/12/13 21:26:53;;;;;;;7.30;2.33;;;;;;;10.85;82.65;101272.28;4862313;29;20040;-77
2021/12/13 21:46:58;;;;;;;3.63;2.13;;;;;;;10.96;83.48;101293.25;4755380;30;20048;-77
2021/12/13 22:00:05;;;;;;;2.80;2.42;;;;;;;11.12;83.12;101285.31;4703177;30;20523;-76
2021/12/13 22:02:34;;;;;;;1.95;1.85;;;;;;;11.07;82.88;101274.25;4783658;29;20052;-76
2021/12/13 22:08:58;;;;;;;2.70;1.90;;;;;;;11.07;82.47;101285.22;4807024;29;20084;-75
2021/12/13 22:12:10;;;;;;;2.35;2.15;;;;;;;11.02;82.50;101283.22;4784457;29;20124;-72
2021/12/13 22:15:06;;;;;;;;;;;;;;;;;;;;;
2021/12/13 22:18:04;;;;;;;1.98;1.88;;;;;;;10.97;83.31;101278.50;4797455;29;20027;-74
2021/12/13 22:20:39;;;;;;;3.58;1.90;;;;;;;11.11;82.49;101316.50;4917117;29;20067;-72
2021/12/13 22:23:10;;;;;;;2.65;1.77;;;;;;;11.16;82.39;101330.28;4915206;29;20367;-73
2021/12/13 22:25:43;;;;;;;2.10;1.90;;;;;;;11.12;83.06;101313.50;4913834;29;20130;-76
2021/12/13 22:31:22;;;;;;;2.10;1.90;;;;;;;11.21;82.55;101326.78;4909448;29;20479;-75
2021/12/13 22:34:17;;;;;;;;;;;;;;;;;;;;;
2021/12/13 22:36:52;;;;;;;7.55;1.60;;;;;;;11.25;82.44;101317.84;4914757;29;20036;-74
2021/12/13 22:39:31;;;;;;;2.08;1.98;;;;;;;11.18;81.89;101322.63;4911896;29;20064;-77
2021/12/13 22:42:02;;;;;;;2.28;1.77;;;;;;;11.11;82.63;101311.00;4916405;29;20052;-77
2021/12/13 22:44:32;;;;;;;2.25;1.85;;;;;;;11.15;82.55;101317.66;4919120;29;20382;-75
2021/12/13 22:47:10;;;;;;;2.80;1.75;;;;;;;11.11;82.24;101294.59;4916015;29;20024;-76
2021/12/13 22:49:45;;;;;;;2.25;1.63;;;;;;;11.13;82.15;101308.88;4915892;29;20451;-75
2021/12/13 22:52:15;;;;;;;;;;;;;;;11.21;82.26;101311.19;4918601;29;20087;-77